Time;durP1;ratioP1;P1;durP2;ratioP2;P2;SDS_P1;SDS_P2;PMS_P1;PMS_P2;Temp;Humidity;BMP_temperature;BMP_pressure;BME280_temperature;BME280_humidity;BME280_pressure;Samples;Min_cycle;Max_cycle;Signal;HPM_P1;HPM_P2
2023/07/30 00:00:41;;;;;;;0.10;0.10;;;20.30;99.90;;;;;;5014814;28;20183;-80
2023/07/30 00:03:06;;;;;;;0.10;0.10;;;20.30;99.90;;;;;;5016149;28;20198;-80
2023/07/30 00:05:32;;;;;;;0.10;0.10;;;20.30;99.90;;;;;;5018646;28;20214;-80
2023/07/30 00:07:57;;;;;;;0.10;0.10;;;20.30;99.90;;;;;;5016769;28;20203;-79
2023/07/30 00:10:23;;;;;;;0.07;0.07;;;20.20;99.90;;;;;;5015615;28;20183;-80
2023/07/30 00:12:48;;;;;;;0.10;0.10;;;20.10;99.90;;;;;;5014069;28;20242;-80
2023/07/30 00:15:15;;;;;;;0.10;0.10;;;20.10;99.90;;;;;;5016302;28;20209;-80
2023/07/30 00:17:41;;;;;;;0.10;0.10;;;20.00;99.90;;;;;;5017937;28;20207;-80
2023/07/30 00:20:08;;;;;;;0.10;0.10;;;20.00;99.90;;;;;;5014158;28;20187;-80
2023/07/30 00:22:33;;;;;;;0.10;0.10;;;20.00;99.90;;;;;;5015400;28;20256;-80
2023/07/30 00:24:59;;;;;;;0.10;0.10;;;19.90;99.90;;;;;;5014142;28;20187;-80
2023/07/30 00:27:24;;;;;;;0.10;0.10;;;19.90;99.90;;;;;;5014406;28;20202;-80
2023/07/30 00:29:50;;;;;;;0.10;0.10;;;19.90;99.90;;;;;;5017403;28;20191;-80
2023/07/30 00:32:16;;;;;;;0.10;0.10;;;19.90;99.90;;;;;;5017653;28;20684;-80
2023/07/30 00:34:42;;;;;;;0.10;0.10;;;19.90;99.90;;;;;;5016096;28;20256;-80
2023/07/30 00:37:08;;;;;;;0.10;0.10;;;19.90;99.90;;;;;;5015555;28;20183;-80
2023/07/30 00:39:33;;;;;;;0.10;0.10;;;19.90;99.90;;;;;;5016135;28;20182;-80
2023/07/30 00:41:59;;;;;;;0.10;0.10;;;19.90;99.90;;;;;;5015265;28;20204;-80
2023/07/30 00:44:24;;;;;;;0.10;0.10;;;19.80;99.90;;;;;;5016720;28;20198;-80
2023/07/30 00:46:50;;;;;;;0.10;0.10;;;19.90;99.90;;;;;;5013831;28;20206;-80
2023/07/30 00:49:16;;;;;;;0.10;0.10;;;19.80;99.90;;;;;;5014437;28;20202;-80
2023/07/30 00:51:42;;;;;;;0.10;0.10;;;19.80;99.90;;;;;;5017560;28;20214;-80
2023/07/30 00:54:08;;;;;;;0.10;0.10;;;19.80;99.90;;;;;;5014225;28;20396;-79
2023/07/30 00:56:34;;;;;;;0.10;0.10;;;19.80;99.90;;;;;;5015678;28;20255;-80
2023/07/30 00:59:00;;;;;;;0.10;0.10;;;19.80;99.90;;;;;;5015851;28;20190;-80
2023/07/30 01:01:26;;;;;;;0.10;0.10;;;19.80;99.90;;;;;;5015657;28;20547;-79
2023/07/30 01:03:52;;;;;;;0.10;0.10;;;19.70;99.90;;;;;;5017034;28;20315;-80
2023/07/30 01:06:18;;;;;;;0.10;0.10;;;19.70;99.90;;;;;;5016975;28;20573;-80
2023/07/30 01:08:43;;;;;;;0.10;0.10;;;19.80;99.90;;;;;;5026731;28;20267;-80
2023/07/30 01:11:10;;;;;;;0.10;0.10;;;19.80;99.90;;;;;;5020830;28;20222;-80
2023/07/30 01:13:36;;;;;;;0.10;0.10;;;19.80;99.90;;;;;;5009028;28;20272;-80
2023/07/30 01:16:03;;;;;;;0.10;0.10;;;19.80;99.90;;;;;;5009767;28;20604;-80
2023/07/30 01:18:28;;;;;;;0.10;0.10;;;19.80;99.90;;;;;;5009058;28;20590;-80
2023/07/30 01:20:57;;;;;;;0.10;0.10;;;19.70;99.90;;;;;;5010586;28;20221;-80
2023/07/30 01:23:23;;;;;;;0.10;0.10;;;19.70;99.90;;;;;;5032126;28;20206;-80
2023/07/30 01:25:56;;;;;;;0.10;0.10;;;19.70;99.90;;;;;;5008874;28;20534;-80
2023/07/30 01:28:22;;;;;;;0.10;0.10;;;19.70;99.90;;;;;;5011645;28;20287;-80
2023/07/30 01:30:48;;;;;;;0.10;0.10;;;19.70;99.90;;;;;;5009245;28;20187;-81
2023/07/30 01:33:14;;;;;;;0.10;0.10;;;19.80;99.90;;;;;;5009762;28;20214;-80
2023/07/30 01:35:42;;;;;;;0.10;0.10;;;19.80;99.90;;;;;;5008679;28;20187;-80
2023/07/30 01:38:08;;;;;;;0.10;0.10;;;19.80;99.90;;;;;;5010085;28;20616;-80
2023/07/30 01:40:34;;;;;;;0.10;0.10;;;19.90;99.90;;;;;;5016930;28;20220;-80
2023/07/30 01:43:00;;;;;;;0.10;0.10;;;19.90;99.90;;;;;;5013264;28;20235;-80
2023/07/30 01:45:25;;;;;;;0.10;0.10;;;19.90;99.90;;;;;;5012549;28;20195;-80
2023/07/30 01:47:51;;;;;;;0.10;0.10;;;19.90;99.90;;;;;;5014685;28;20276;-80
2023/07/30 01:50:16;;;;;;;0.10;0.10;;;19.90;99.90;;;;;;5014314;28;20210;-80
2023/07/30 01:52:42;;;;;;;0.10;0.10;;;19.90;99.90;;;;;;5012679;28;20230;-80
2023/07/30 01:55:08;;;;;;;0.10;0.10;;;19.90;99.90;;;;;;5016022;28;20269;-80
2023/07/30 01:57:33;;;;;;;0.10;0.10;;;19.90;99.90;;;;;;5014038;28;20186;-80
2023/07/30 01:59:59;;;;;;;0.10;0.10;;;19.90;99.90;;;;;;5013294;28;20229;-80
2023/07/30 02:02:24;;;;;;;0.10;0.10;;;19.90;99.90;;;;;;5012076;28;20210;-80
2023/07/30 02:04:50;;;;;;;0.10;0.10;;;19.90;99.90;;;;;;5012238;28;20187;-80
2023/07/30 02:07:15;;;;;;;0.10;0.10;;;19.90;99.90;;;;;;5011888;28;20294;-80
2023/07/30 02:09:41;;;;;;;0.10;0.10;;;19.90;99.90;;;;;;5012316;28;20190;-80
2023/07/30 02:12:07;;;;;;;0.10;0.10;;;19.90;99.90;;;;;;5013340;28;20226;-80
2023/07/30 02:14:32;;;;;;;0.10;0.10;;;19.90;99.90;;;;;;5028769;28;20309;-80
2023/07/30 02:16:58;;;;;;;0.10;0.10;;;19.90;99.90;;;;;;5011895;28;20641;-80
2023/07/30 02:19:23;;;;;;;0.10;0.10;;;20.00;99.90;;;;;;5011904;28;20196;-80
2023/07/30 02:21:49;;;;;;;0.10;0.10;;;20.00;99.90;;;;;;5013593;28;20187;-80
2023/07/30 02:24:14;;;;;;;0.10;0.10;;;20.00;99.90;;;;;;5011624;28;20241;-80
2023/07/30 02:26:40;;;;;;;0.10;0.10;;;20.00;99.90;;;;;;5012111;28;20184;-80
2023/07/30 02:29:05;;;;;;;0.10;0.10;;;20.10;99.90;;;;;;5014926;28;20190;-80
2023/07/30 02:31:31;;;;;;;0.10;0.10;;;20.00;99.90;;;;;;5011722;28;20207;-80
2023/07/30 02:33:57;;;;;;;0.10;0.10;;;20.10;99.90;;;;;;5012143;28;20559;-80
2023/07/30 02:36:23;;;;;;;0.10;0.10;;;20.10;99.90;;;;;;5011162;28;20199;-80
2023/07/30 02:38:49;;;;;;;0.10;0.10;;;20.10;99.90;;;;;;5011704;28;20545;-80
2023/07/30 02:41:14;;;;;;;0.10;0.10;;;20.10;99.90;;;;;;5011692;28;20191;-80
2023/07/30 02:43:40;;;;;;;0.10;0.10;;;20.10;99.90;;;;;;5011253;28;20218;-80
2023/07/30 02:46:06;;;;;;;0.10;0.10;;;20.10;99.90;;;;;;5015115;28;20268;-80
2023/07/30 02:48:32;;;;;;;0.10;0.10;;;20.00;99.90;;;;;;5012269;28;20179;-80
2023/07/30 02:50:58;;;;;;;0.10;0.10;;;20.00;99.90;;;;;;5012448;28;20690;-80
2023/07/30 02:53:23;;;;;;;0.10;0.10;;;20.00;99.90;;;;;;5014433;28;20302;-80
2023/07/30 02:55:49;;;;;;;0.10;0.10;;;20.00;99.90;;;;;;5011763;28;20187;-80
2023/07/30 02:58:14;;;;;;;0.10;0.10;;;19.90;99.90;;;;;;5011468;28;20187;-80
2023/07/30 03:00:40;;;;;;;0.10;0.10;;;19.70;99.90;;;;;;5011229;28;20240;-80
2023/07/30 03:03:05;;;;;;;0.10;0.10;;;19.80;99.90;;;;;;5011477;28;20234;-80
2023/07/30 03:05:31;;;;;;;0.10;0.10;;;19.80;99.90;;;;;;5009378;28;20180;-80
2023/07/30 03:07:56;;;;;;;0.10;0.10;;;19.80;99.90;;;;;;5010921;28;20190;-80
2023/07/30 03:10:22;;;;;;;0.10;0.10;;;19.80;99.90;;;;;;5012701;28;20198;-80
2023/07/30 03:12:47;;;;;;;0.10;0.10;;;19.90;99.90;;;;;;5013021;28;20227;-80
2023/07/30 03:15:13;;;;;;;0.10;0.10;;;20.00;99.90;;;;;;5011582;28;20726;-80
2023/07/30 03:17:38;;;;;;;0.10;0.10;;;20.00;99.90;;;;;;5012339;28;20186;-80
2023/07/30 03:20:05;;;;;;;0.10;0.10;;;20.00;99.90;;;;;;5012186;28;20226;-80
2023/07/30 03:22:30;;;;;;;0.10;0.10;;;20.00;99.90;;;;;;5012668;28;20261;-80
2023/07/30 03:24:56;;;;;;;0.10;0.10;;;20.00;99.90;;;;;;5011124;28;20175;-80
2023/07/30 03:27:21;;;;;;;0.10;0.10;;;19.80;99.90;;;;;;5012473;28;21343;-80
2023/07/30 03:29:47;;;;;;;0.10;0.10;;;19.70;99.90;;;;;;5015978;28;20187;-81
2023/07/30 03:32:12;;;;;;;0.10;0.10;;;19.60;99.90;;;;;;5010235;28;20710;-80
2023/07/30 03:34:38;;;;;;;0.10;0.10;;;19.60;99.90;;;;;;5014773;28;20213;-80
2023/07/30 03:37:03;;;;;;;0.10;0.10;;;19.60;99.90;;;;;;5011778;28;20183;-80
2023/07/30 03:39:29;;;;;;;0.10;0.10;;;19.60;99.90;;;;;;5012825;28;20184;-80
2023/07/30 03:41:54;;;;;;;0.10;0.10;;;19.60;99.90;;;;;;5012508;28;20192;-80
2023/07/30 03:44:20;;;;;;;0.10;0.10;;;19.50;99.90;;;;;;5013781;28;20282;-80
2023/07/30 03:46:46;;;;;;;0.10;0.10;;;19.50;99.90;;;;;;5010394;28;20190;-80
2023/07/30 03:49:11;;;;;;;0.10;0.10;;;19.50;99.90;;;;;;5010385;28;20191;-81
2023/07/30 03:51:38;;;;;;;0.10;0.10;;;19.50;99.90;;;;;;5011304;28;20226;-80
2023/07/30 03:54:04;;;;;;;0.10;0.10;;;19.50;99.90;;;;;;5015216;28;20280;-80
2023/07/30 03:56:30;;;;;;;0.10;0.10;;;19.40;99.90;;;;;;5010591;28;20266;-80
2023/07/30 03:58:55;;;;;;;0.10;0.10;;;19.30;99.90;;;;;;5011929;28;20181;-80
2023/07/30 04:01:21;;;;;;;0.10;0.10;;;19.20;99.90;;;;;;5017273;28;20187;-80
2023/07/30 04:03:46;;;;;;;0.10;0.10;;;19.30;99.90;;;;;;5010164;28;20684;-80
2023/07/30 04:06:12;;;;;;;0.10;0.10;;;19.30;99.90;;;;;;5012293;28;20183;-80
2023/07/30 04:08:37;;;;;;;0.10;0.10;;;19.30;99.90;;;;;;5010189;28;20739;-79
2023/07/30 04:11:03;;;;;;;0.10;0.10;;;19.30;99.90;;;;;;5011104;28;20207;-80
2023/07/30 04:13:29;;;;;;;0.10;0.10;;;19.20;99.90;;;;;;5014234;28;20866;-80
2023/07/30 04:15:54;;;;;;;0.10;0.10;;;19.30;99.90;;;;;;5014927;28;20274;-79
2023/07/30 04:18:20;;;;;;;0.10;0.10;;;19.30;99.90;;;;;;5016281;28;20210;-80
2023/07/30 04:20:45;;;;;;;0.10;0.10;;;19.40;99.90;;;;;;5015573;28;20662;-80
2023/07/30 04:23:11;;;;;;;0.10;0.10;;;19.50;99.90;;;;;;5019242;28;20249;-79
2023/07/30 04:25:36;;;;;;;0.10;0.10;;;19.50;99.90;;;;;;5017321;28;20271;-80
2023/07/30 04:28:02;;;;;;;0.10;0.10;;;19.50;99.90;;;;;;5015812;28;20209;-80
2023/07/30 04:30:27;;;;;;;0.10;0.10;;;19.50;99.90;;;;;;5014538;28;20282;-80
2023/07/30 04:32:53;;;;;;;0.10;0.10;;;19.60;99.90;;;;;;5014818;28;20282;-80
2023/07/30 04:35:18;;;;;;;0.10;0.10;;;19.70;99.90;;;;;;5014257;28;20191;-80
2023/07/30 04:37:44;;;;;;;0.10;0.10;;;19.80;99.90;;;;;;5011978;28;20175;-80
2023/07/30 04:40:10;;;;;;;0.10;0.10;;;19.90;99.90;;;;;;5010794;28;20183;-80
2023/07/30 04:42:35;;;;;;;0.10;0.10;;;20.00;99.90;;;;;;5011118;28;20294;-81
2023/07/30 04:45:01;;;;;;;0.10;0.10;;;20.10;99.90;;;;;;5013163;28;20227;-80
2023/07/30 04:47:26;;;;;;;0.10;0.10;;;20.10;99.90;;;;;;5011850;28;20187;-80
2023/07/30 04:49:52;;;;;;;0.10;0.10;;;20.20;99.90;;;;;;5010735;28;20214;-80
2023/07/30 04:52:18;;;;;;;0.10;0.10;;;20.20;99.90;;;;;;5011681;28;20213;-80
2023/07/30 04:54:44;;;;;;;0.10;0.10;;;20.30;99.90;;;;;;5010840;28;20186;-80
2023/07/30 04:57:10;;;;;;;0.10;0.10;;;20.20;99.90;;;;;;5006371;28;20836;-80
2023/07/30 04:59:35;;;;;;;0.10;0.10;;;20.20;99.90;;;;;;5008947;28;20183;-80
2023/07/30 05:02:01;;;;;;;0.10;0.10;;;20.20;99.90;;;;;;5005968;28;20202;-80
2023/07/30 05:04:26;;;;;;;0.10;0.10;;;20.20;99.90;;;;;;5005677;28;20233;-80
2023/07/30 05:06:52;;;;;;;0.10;0.10;;;20.20;99.90;;;;;;5004856;28;20703;-80
2023/07/30 05:09:17;;;;;;;0.10;0.10;;;20.30;99.90;;;;;;5004713;28;20194;-80
2023/07/30 05:11:43;;;;;;;0.10;0.10;;;20.40;99.90;;;;;;5004384;28;20199;-80
2023/07/30 05:14:08;;;;;;;0.10;0.10;;;20.40;99.90;;;;;;5009103;28;20232;-80
2023/07/30 05:16:36;;;;;;;0.10;0.10;;;20.50;99.90;;;;;;5025000;28;20194;-81
2023/07/30 05:19:01;;;;;;;0.10;0.10;;;20.50;99.90;;;;;;5013221;28;20190;-82
2023/07/30 05:21:27;;;;;;;0.10;0.10;;;20.50;99.90;;;;;;5014269;28;20194;-82
2023/07/30 05:23:53;;;;;;;0.10;0.10;;;20.60;99.90;;;;;;5015352;28;20218;-82
2023/07/30 05:26:18;;;;;;;0.10;0.10;;;20.70;99.90;;;;;;5017649;28;20195;-81
2023/07/30 05:28:44;;;;;;;0.10;0.10;;;20.80;99.90;;;;;;5016176;28;20231;-81
2023/07/30 05:31:09;;;;;;;0.10;0.10;;;20.80;99.90;;;;;;5028968;28;20245;-80
2023/07/30 05:33:35;;;;;;;0.10;0.10;;;21.00;99.90;;;;;;5013655;28;20210;-81
2023/07/30 05:36:00;;;;;;;0.10;0.10;;;21.00;99.90;;;;;;5012556;28;20225;-81
2023/07/30 05:38:26;;;;;;;0.10;0.10;;;21.00;99.90;;;;;;5013010;28;20183;-80
2023/07/30 05:40:51;;;;;;;0.10;0.10;;;20.90;99.90;;;;;;5012892;28;20218;-81
2023/07/30 05:43:17;;;;;;;0.10;0.10;;;20.90;99.90;;;;;;5009362;28;20372;-81
2023/07/30 05:45:43;;;;;;;0.10;0.10;;;20.80;99.90;;;;;;5010895;28;20194;-82
2023/07/30 05:48:09;;;;;;;0.10;0.10;;;20.90;99.90;;;;;;5010973;28;20281;-80
2023/07/30 05:50:34;;;;;;;0.10;0.10;;;20.80;99.90;;;;;;5011321;28;20198;-80
2023/07/30 05:53:00;;;;;;;0.10;0.10;;;20.90;99.90;;;;;;5028992;28;20210;-80
2023/07/30 05:55:25;;;;;;;0.10;0.10;;;20.90;99.90;;;;;;5013193;28;20190;-81
2023/07/30 05:57:53;;;;;;;0.10;0.10;;;20.90;99.90;;;;;;5013397;28;21145;-81
2023/07/30 06:00:18;;;;;;;0.10;0.10;;;21.00;99.90;;;;;;5010317;28;20219;-80
2023/07/30 06:02:44;;;;;;;0.10;0.10;;;21.20;99.90;;;;;;5029044;28;20684;-81
2023/07/30 06:05:10;;;;;;;0.10;0.10;;;21.30;99.90;;;;;;5012855;28;20218;-80
2023/07/30 06:07:35;;;;;;;0.10;0.10;;;21.60;99.90;;;;;;5012036;28;20326;-81
2023/07/30 06:10:01;;;;;;;0.10;0.10;;;21.80;99.90;;;;;;5013855;28;20644;-81
2023/07/30 06:12:26;;;;;;;0.10;0.10;;;21.80;99.90;;;;;;5012829;28;20353;-80
2023/07/30 06:14:52;;;;;;;0.10;0.10;;;21.70;99.90;;;;;;5012988;28;20186;-80
2023/07/30 06:17:18;;;;;;;0.10;0.10;;;21.60;99.90;;;;;;5027281;28;20187;-80
2023/07/30 06:19:43;;;;;;;0.10;0.10;;;21.40;99.90;;;;;;5018615;28;20530;-80
2023/07/30 06:22:08;;;;;;;0.10;0.10;;;21.40;99.90;;;;;;5033783;28;20207;-81
2023/07/30 06:24:34;;;;;;;0.10;0.10;;;21.30;99.90;;;;;;5012660;28;20188;-81
2023/07/30 06:26:59;;;;;;;0.10;0.10;;;21.20;99.90;;;;;;5025539;28;20191;-81
2023/07/30 06:29:25;;;;;;;0.10;0.10;;;21.10;99.90;;;;;;5026968;28;20183;-81
2023/07/30 06:31:51;;;;;;;0.10;0.10;;;21.10;99.90;;;;;;5009583;28;20293;-80
2023/07/30 06:34:16;;;;;;;0.10;0.10;;;21.10;99.90;;;;;;5013322;28;20210;-81
2023/07/30 06:36:41;;;;;;;0.10;0.10;;;21.10;99.90;;;;;;5011930;28;20253;-81
2023/07/30 06:39:07;;;;;;;0.10;0.10;;;21.10;99.90;;;;;;5012138;28;20199;-81
2023/07/30 06:41:33;;;;;;;0.10;0.10;;;21.00;99.90;;;;;;5012464;28;20202;-82
2023/07/30 06:43:58;;;;;;;0.10;0.10;;;21.00;99.90;;;;;;5012220;28;20241;-81
2023/07/30 06:46:24;;;;;;;0.10;0.10;;;21.10;99.90;;;;;;5011403;28;20194;-81
2023/07/30 06:48:49;;;;;;;0.10;0.10;;;21.10;99.90;;;;;;5010517;28;20184;-81
2023/07/30 06:51:18;;;;;;;0.10;0.10;;;21.20;99.90;;;;;;5009779;28;20257;-81
2023/07/30 06:53:43;;;;;;;0.10;0.10;;;21.20;99.90;;;;;;5026879;28;20257;-82
2023/07/30 06:56:09;;;;;;;0.10;0.10;;;21.10;99.90;;;;;;5011068;28;20187;-81
2023/07/30 06:58:35;;;;;;;0.10;0.10;;;21.10;99.90;;;;;;5008529;28;20712;-80
2023/07/30 07:01:00;;;;;;;0.10;0.10;;;21.00;99.90;;;;;;5013464;28;20194;-80
2023/07/30 07:03:26;;;;;;;0.10;0.10;;;20.90;99.90;;;;;;5002236;28;20226;-81
2023/07/30 07:05:55;;;;;;;0.10;0.10;;;20.80;99.90;;;;;;5005771;28;20199;-79
2023/07/30 07:08:21;;;;;;;0.10;0.10;;;20.80;99.90;;;;;;5020948;28;20214;-80
2023/07/30 07:10:47;;;;;;;0.10;0.10;;;20.90;99.90;;;;;;5010319;28;20641;-80
2023/07/30 07:13:15;;;;;;;0.10;0.10;;;20.90;99.90;;;;;;5022648;28;20218;-80
2023/07/30 07:15:41;;;;;;;0.10;0.10;;;21.00;99.90;;;;;;5008751;28;20249;-80
2023/07/30 07:18:07;;;;;;;0.10;0.10;;;21.10;99.90;;;;;;5008988;28;20550;-80
2023/07/30 07:20:32;;;;;;;0.10;0.10;;;21.20;99.90;;;;;;5007118;28;20195;-80
2023/07/30 07:22:58;;;;;;;0.10;0.10;;;21.30;99.90;;;;;;5005688;28;20214;-80
2023/07/30 07:25:24;;;;;;;0.10;0.10;;;21.40;99.90;;;;;;5006797;28;20218;-80
2023/07/30 07:27:49;;;;;;;0.10;0.10;;;21.50;99.90;;;;;;5007477;28;20198;-80
2023/07/30 07:30:15;;;;;;;0.10;0.10;;;21.70;99.90;;;;;;5006959;28;20589;-81
2023/07/30 07:32:40;;;;;;;0.10;0.10;;;21.80;99.90;;;;;;5007156;28;20214;-80
2023/07/30 07:35:06;;;;;;;0.10;0.10;;;22.10;99.90;;;;;;5007493;28;20571;-80
2023/07/30 07:37:33;;;;;;;0.10;0.10;;;22.10;99.90;;;;;;5006522;28;20194;-80
2023/07/30 07:39:58;;;;;;;0.10;0.10;;;22.10;99.90;;;;;;5007255;28;20198;-80
2023/07/30 07:42:24;;;;;;;0.10;0.10;;;22.20;99.90;;;;;;5005466;28;20210;-80
2023/07/30 07:44:49;;;;;;;0.10;0.10;;;22.50;99.90;;;;;;5004548;28;20218;-81
2023/07/30 07:47:15;;;;;;;0.10;0.10;;;22.80;99.90;;;;;;5021429;28;20199;-80
2023/07/30 07:49:41;;;;;;;0.10;0.10;;;22.80;99.90;;;;;;5004377;28;20202;-80
2023/07/30 07:52:07;;;;;;;0.10;0.10;;;22.90;99.90;;;;;;5003717;28;20219;-82
2023/07/30 07:54:32;;;;;;;0.10;0.10;;;22.70;99.90;;;;;;4997604;28;20191;-80
2023/07/30 07:56:58;;;;;;;0.10;0.10;;;22.50;99.90;;;;;;4994561;28;20191;-80
2023/07/30 07:59:24;;;;;;;0.10;0.10;;;22.60;99.90;;;;;;4998033;28;20211;-81
2023/07/30 08:01:49;;;;;;;0.10;0.10;;;22.80;99.90;;;;;;5000584;28;20183;-81
2023/07/30 08:04:15;;;;;;;0.10;0.10;;;23.10;99.90;;;;;;5004917;28;20695;-80
2023/07/30 08:06:40;;;;;;;0.10;0.10;;;23.60;99.90;;;;;;5004120;28;20187;-80
2023/07/30 08:09:06;;;;;;;0.10;0.10;;;23.70;99.90;;;;;;5004130;28;20486;-80
2023/07/30 08:11:31;;;;;;;0.10;0.10;;;23.80;99.90;;;;;;5003368;28;20203;-80
2023/07/30 08:13:57;;;;;;;0.10;0.10;;;23.80;99.90;;;;;;5004416;28;20668;-80
2023/07/30 08:16:23;;;;;;;0.10;0.10;;;23.20;99.90;;;;;;5004521;28;20183;-80
2023/07/30 08:18:48;;;;;;;0.10;0.10;;;23.20;99.90;;;;;;5007862;28;20679;-79
2023/07/30 08:21:17;;;;;;;0.10;0.10;;;23.20;99.90;;;;;;5013923;28;20206;-79
2023/07/30 08:23:43;;;;;;;0.10;0.10;;;23.10;99.90;;;;;;5013347;28;20207;-80
2023/07/30 08:26:08;;;;;;;0.10;0.10;;;23.10;99.90;;;;;;5013652;28;20508;-80
2023/07/30 08:28:33;;;;;;;0.10;0.10;;;23.10;99.90;;;;;;5014559;28;20450;-80
2023/07/30 08:31:03;;;;;;;0.10;0.10;;;23.10;99.90;;;;;;5009247;28;20218;-80
2023/07/30 08:33:29;;;;;;;0.10;0.10;;;23.10;99.90;;;;;;5005233;28;20269;-80
2023/07/30 08:35:59;;;;;;;0.10;0.10;;;23.00;99.90;;;;;;5018000;28;20214;-80
2023/07/30 08:38:24;;;;;;;0.10;0.10;;;22.80;99.90;;;;;;5004189;28;20190;-79
2023/07/30 08:40:50;;;;;;;0.10;0.10;;;22.80;99.90;;;;;;5003268;28;20179;-80
2023/07/30 08:43:16;;;;;;;0.10;0.10;;;22.80;99.90;;;;;;5004642;28;20313;-80
2023/07/30 08:45:42;;;;;;;0.10;0.10;;;22.80;99.90;;;;;;5001683;28;20187;-80
2023/07/30 08:48:08;;;;;;;0.10;0.10;;;22.70;99.90;;;;;;5018395;28;20268;-81
2023/07/30 08:50:35;;;;;;;0.10;0.10;;;22.60;99.90;;;;;;5002838;28;22021;-80
2023/07/30 08:53:02;;;;;;;0.10;0.10;;;22.50;99.90;;;;;;5003880;28;21013;-80
2023/07/30 08:55:29;;;;;;;0.10;0.10;;;22.40;99.90;;;;;;5003612;28;20324;-80
2023/07/30 08:57:56;;;;;;;0.10;0.10;;;22.30;99.90;;;;;;5000654;28;20215;-80
2023/07/30 09:00:25;;;;;;;0.10;0.10;;;22.30;99.90;;;;;;5004700;28;20229;-80
2023/07/30 09:02:58;;;;;;;0.10;0.10;;;22.20;99.90;;;;;;5001938;28;20284;-80
2023/07/30 09:05:25;;;;;;;0.10;0.10;;;22.00;99.90;;;;;;5003838;28;20269;-81
2023/07/30 09:07:51;;;;;;;0.10;0.10;;;21.70;99.90;;;;;;5001864;28;20247;-80
2023/07/30 09:10:16;;;;;;;0.10;0.10;;;21.40;99.90;;;;;;5002996;28;20701;-79
2023/07/30 09:12:42;;;;;;;0.10;0.10;;;21.00;99.90;;;;;;5001157;28;20810;-79
2023/07/30 09:15:08;;;;;;;0.10;0.10;;;20.50;99.90;;;;;;5003793;28;20230;-79
2023/07/30 09:17:34;;;;;;;0.10;0.10;;;20.10;99.90;;;;;;5003543;28;20266;-79
2023/07/30 09:20:01;;;;;;;0.10;0.10;;;19.60;99.90;;;;;;5002279;28;20193;-79
2023/07/30 09:22:40;;;;;;;0.10;0.10;;;19.30;99.90;;;;;;5019884;28;20289;-79
2023/07/30 09:25:07;;;;;;;0.10;0.10;;;19.40;99.90;;;;;;5002780;28;20246;-79
2023/07/30 09:27:33;;;;;;;0.10;0.10;;;19.60;99.90;;;;;;5001862;28;20218;-79
2023/07/30 09:30:01;;;;;;;0.10;0.10;;;19.70;99.90;;;;;;5000972;28;21875;-78
2023/07/30 09:32:31;;;;;;;0.10;0.10;;;19.70;99.90;;;;;;5000240;28;20219;-78
2023/07/30 09:35:10;;;;;;;0.10;0.10;;;19.90;99.90;;;;;;5002101;28;20266;-79
2023/07/30 09:37:41;;;;;;;0.10;0.10;;;20.00;99.90;;;;;;5000466;28;20194;-79
2023/07/30 09:40:08;;;;;;;0.10;0.10;;;20.20;99.90;;;;;;5017107;28;20226;-81
2023/07/30 09:42:35;;;;;;;0.10;0.10;;;20.40;99.90;;;;;;5017967;28;20210;-82
2023/07/30 09:45:01;;;;;;;0.10;0.10;;;20.60;99.90;;;;;;5005009;28;20269;-82
2023/07/30 09:47:27;;;;;;;0.10;0.10;;;20.50;99.90;;;;;;5004976;28;20274;-82
2023/07/30 09:49:54;;;;;;;0.10;0.10;;;20.70;99.90;;;;;;5000420;28;20542;-82
2023/07/30 09:52:21;;;;;;;0.10;0.10;;;20.90;99.90;;;;;;5000474;28;20249;-79
2023/07/30 09:54:49;;;;;;;0.10;0.10;;;20.70;99.90;;;;;;4999183;28;20187;-80
2023/07/30 09:57:15;;;;;;;0.10;0.10;;;20.80;99.90;;;;;;5001084;28;20202;-80
2023/07/30 09:59:41;;;;;;;0.10;0.10;;;20.50;99.90;;;;;;5000773;28;20198;-80
2023/07/30 10:02:08;;;;;;;0.10;0.10;;;20.40;99.90;;;;;;5006155;28;20214;-80
2023/07/30 10:04:38;;;;;;;0.10;0.10;;;20.50;99.90;;;;;;5020444;28;20198;-80
2023/07/30 10:07:08;;;;;;;0.10;0.10;;;20.60;99.90;;;;;;5005270;28;20191;-80
2023/07/30 10:09:43;;;;;;;0.10;0.10;;;20.90;99.90;;;;;;5021275;28;20533;-80
2023/07/30 10:12:15;;;;;;;0.10;0.10;;;20.90;99.90;;;;;;5021080;28;20229;-80
2023/07/30 10:14:41;;;;;;;0.10;0.10;;;20.60;99.90;;;;;;5005078;28;20204;-80
2023/07/30 10:17:10;;;;;;;0.10;0.10;;;20.60;99.90;;;;;;5002419;28;20536;-80
2023/07/30 10:19:35;;;;;;;0.10;0.10;;;20.80;99.90;;;;;;5004548;28;20537;-80
2023/07/30 10:22:13;;;;;;;0.10;0.10;;;21.10;99.90;;;;;;5004522;28;20206;-81
2023/07/30 10:24:39;;;;;;;0.10;0.10;;;21.00;99.90;;;;;;5003392;28;20191;-80
2023/07/30 10:27:09;;;;;;;0.10;0.10;;;21.00;99.90;;;;;;5006868;28;20199;-80
2023/07/30 10:29:35;;;;;;;0.10;0.10;;;21.10;99.90;;;;;;5012629;28;20210;-81
2023/07/30 10:32:02;;;;;;;0.10;0.10;;;21.10;99.90;;;;;;5010460;28;20222;-82
2023/07/30 10:34:47;;;;;;;0.10;0.10;;;21.20;99.90;;;;;;5010663;28;20184;-82
2023/07/30 10:37:18;;;;;;;0.10;0.10;;;21.30;99.90;;;;;;5009217;28;20497;-81
2023/07/30 10:39:48;;;;;;;0.10;0.10;;;21.50;99.90;;;;;;5005393;28;20180;-81
2023/07/30 10:42:14;;;;;;;0.10;0.10;;;21.50;99.90;;;;;;5007413;28;20207;-82
2023/07/30 10:44:43;;;;;;;0.10;0.10;;;21.40;99.90;;;;;;5007459;28;20644;-82
2023/07/30 10:47:09;;;;;;;0.10;0.10;;;21.40;99.90;;;;;;5008486;28;20329;-81
2023/07/30 10:49:40;;;;;;;0.10;0.10;;;21.90;99.90;;;;;;5005773;28;20298;-82
2023/07/30 10:52:06;;;;;;;0.10;0.10;;;22.10;99.90;;;;;;5006232;28;20241;-82
2023/07/30 10:54:36;;;;;;;0.10;0.10;;;22.20;99.90;;;;;;5021903;28;20190;-82
2023/07/30 10:57:03;;;;;;;0.10;0.10;;;22.50;99.90;;;;;;5008754;28;20199;-80
2023/07/30 10:59:39;;;;;;;0.10;0.10;;;22.30;99.90;;;;;;5007475;28;20195;-81
2023/07/30 11:02:05;;;;;;;0.10;0.10;;;22.10;99.90;;;;;;5008174;28;20239;-82
2023/07/30 11:04:34;;;;;;;0.10;0.10;;;21.90;99.90;;;;;;5007268;28;20211;-82
2023/07/30 11:07:00;;;;;;;0.10;0.10;;;21.80;99.90;;;;;;5022938;28;20191;-82
2023/07/30 11:09:27;;;;;;;0.10;0.10;;;21.60;99.90;;;;;;5003526;28;20194;-81
2023/07/30 11:11:55;;;;;;;0.10;0.10;;;21.50;99.90;;;;;;5003862;28;20210;-80
2023/07/30 11:14:23;;;;;;;0.10;0.10;;;21.30;99.90;;;;;;5021488;28;20677;-82
2023/07/30 11:16:50;;;;;;;0.10;0.10;;;21.20;99.90;;;;;;5021056;28;20566;-82
2023/07/30 11:19:16;;;;;;;0.10;0.10;;;21.20;99.90;;;;;;5019279;28;20349;-82
2023/07/30 11:21:53;;;;;;;0.10;0.10;;;21.30;99.90;;;;;;5004905;28;20233;-82
2023/07/30 11:24:20;;;;;;;0.10;0.10;;;21.40;99.90;;;;;;5004997;28;20195;-83
2023/07/30 11:26:58;;;;;;;0.10;0.10;;;21.60;99.90;;;;;;5005549;28;20237;-83
2023/07/30 11:29:23;;;;;;;0.10;0.10;;;21.80;99.90;;;;;;5019612;28;20272;-83
2023/07/30 11:31:49;;;;;;;0.10;0.10;;;22.20;99.90;;;;;;5005402;28;21060;-83
2023/07/30 11:34:15;;;;;;;0.10;0.10;;;22.50;99.90;;;;;;5002451;28;20225;-83
2023/07/30 11:36:42;;;;;;;0.10;0.10;;;22.80;99.90;;;;;;5005070;28;21106;-82
2023/07/30 11:39:08;;;;;;;0.10;0.10;;;22.90;99.90;;;;;;5003309;28;20217;-82
2023/07/30 11:41:34;;;;;;;0.10;0.10;;;23.10;99.90;;;;;;5020011;28;20187;-83
2023/07/30 11:43:59;;;;;;;0.10;0.10;;;23.10;99.90;;;;;;5003461;28;20240;-83
2023/07/30 11:46:25;;;;;;;0.10;0.10;;;23.10;99.90;;;;;;5003165;28;20694;-82
2023/07/30 11:48:53;;;;;;;0.10;0.10;;;22.90;99.90;;;;;;5004305;28;20933;-82
2023/07/30 11:51:29;;;;;;;0.10;0.10;;;22.60;99.90;;;;;;5003871;28;20230;-83
2023/07/30 11:54:01;;;;;;;0.10;0.10;;;22.60;99.90;;;;;;5000904;28;21190;-82
2023/07/30 11:56:27;;;;;;;0.10;0.10;;;22.50;99.90;;;;;;5004883;28;20229;-82
2023/07/30 11:58:58;;;;;;;0.10;0.10;;;22.50;99.90;;;;;;5005387;28;20191;-82
2023/07/30 12:01:27;;;;;;;0.10;0.10;;;22.50;99.90;;;;;;5018658;28;20738;-82
2023/07/30 12:03:57;;;;;;;0.10;0.10;;;22.50;99.90;;;;;;5003711;28;20214;-82
2023/07/30 12:06:23;;;;;;;0.10;0.10;;;22.80;99.90;;;;;;5002415;28;20273;-83
2023/07/30 12:08:49;;;;;;;0.10;0.10;;;22.80;99.90;;;;;;5018579;28;20231;-82
2023/07/30 12:11:18;;;;;;;0.10;0.10;;;22.80;99.90;;;;;;5019025;28;20578;-82
2023/07/30 12:13:47;;;;;;;0.10;0.10;;;22.70;99.90;;;;;;5019214;28;20215;-83
2023/07/30 12:16:14;;;;;;;0.10;0.10;;;22.80;99.90;;;;;;5000591;28;21433;-84
2023/07/30 12:18:40;;;;;;;0.10;0.10;;;22.50;99.90;;;;;;5017957;28;20283;-85
2023/07/30 12:21:11;;;;;;;0.10;0.10;;;22.50;99.90;;;;;;5002909;28;20230;-84
2023/07/30 12:23:38;;;;;;;0.10;0.10;;;22.20;99.90;;;;;;5003227;28;20207;-84
2023/07/30 12:26:04;;;;;;;0.10;0.10;;;21.80;99.90;;;;;;5017933;28;20202;-84
2023/07/30 12:28:34;;;;;;;0.10;0.10;;;21.90;99.90;;;;;;5002774;28;20186;-83
2023/07/30 12:31:00;;;;;;;0.10;0.10;;;22.30;99.90;;;;;;5017321;28;20559;-85
2023/07/30 12:33:25;;;;;;;0.10;0.10;;;22.50;99.90;;;;;;5003639;28;20211;-85
2023/07/30 12:35:51;;;;;;;0.10;0.10;;;22.80;99.90;;;;;;5002799;28;20602;-85
2023/07/30 12:38:16;;;;;;;0.10;0.10;;;23.10;99.90;;;;;;5002658;28;20281;-86
2023/07/30 12:40:42;;;;;;;0.10;0.10;;;23.10;99.90;;;;;;5007233;28;20580;-84
2023/07/30 12:43:08;;;;;;;0.10;0.10;;;23.10;99.90;;;;;;5010452;28;20234;-84